createdAt,value
2018-10-05T00:00:46.332Z,84.70
2018-10-05T00:03:14.972Z,84.80
2018-10-05T00:05:43.530Z,84.80
2018-10-05T00:08:13.144Z,85.20
2018-10-05T00:10:41.841Z,84.80
2018-10-05T00:13:10.650Z,84.80
2018-10-05T00:15:40.399Z,84.80
2018-10-05T00:18:08.963Z,84.80
2018-10-05T00:20:37.584Z,84.80
2018-10-05T00:23:06.473Z,84.80
2018-10-05T00:25:35.030Z,85.00
2018-10-05T00:28:03.811Z,85.20
2018-10-05T00:30:32.298Z,85.60
2018-10-05T00:33:00.819Z,85.40
2018-10-05T00:35:29.642Z,85.60
2018-10-05T00:37:58.214Z,85.60
2018-10-05T00:40:26.898Z,85.80
2018-10-05T00:42:55.512Z,85.90
2018-10-05T00:45:24.015Z,85.80
2018-10-05T00:47:52.563Z,85.70
2018-10-05T00:50:21.094Z,85.60
2018-10-05T00:52:49.717Z,86.30
2018-10-05T00:55:18.405Z,86.40
2018-10-05T00:57:46.946Z,86.40
2018-10-05T01:00:15.482Z,87.30
2018-10-05T01:02:44.026Z,87.10
2018-10-05T01:05:12.604Z,87.00
2018-10-05T01:07:41.139Z,87.20
2018-10-05T01:10:09.671Z,87.20
2018-10-05T01:12:38.260Z,87.60
2018-10-05T01:15:10.667Z,87.70
2018-10-05T01:17:39.478Z,87.60
2018-10-05T01:20:08.011Z,88.00
2018-10-05T01:22:36.530Z,88.20
2018-10-05T01:25:05.162Z,88.90
2018-10-05T01:27:33.694Z,88.90
2018-10-05T01:30:02.238Z,88.90
2018-10-05T01:32:30.746Z,88.90
2018-10-05T01:34:59.287Z,89.00
2018-10-05T01:37:27.879Z,89.10
2018-10-05T01:39:56.452Z,89.50
2018-10-05T01:42:30.092Z,89.40
2018-10-05T01:44:58.663Z,89.50
2018-10-05T01:47:28.314Z,89.10
2018-10-05T01:49:56.903Z,89.00
2018-10-05T01:52:25.694Z,88.80
2018-10-05T01:54:55.087Z,88.80
2018-10-05T01:57:23.733Z,88.70
2018-10-05T01:59:52.238Z,88.40
2018-10-05T02:02:21.192Z,88.60
2018-10-05T02:04:49.902Z,88.50
2018-10-05T02:07:18.509Z,88.50
2018-10-05T02:09:48.458Z,88.40
2018-10-05T02:12:16.975Z,88.80
2018-10-05T02:14:45.795Z,88.40
2018-10-05T02:17:14.329Z,88.80
2018-10-05T02:19:42.801Z,88.80
2018-10-05T02:22:11.380Z,89.20
2018-10-05T02:24:39.984Z,89.40
2018-10-05T02:27:08.603Z,88.30
2018-10-05T02:29:37.365Z,88.20
2018-10-05T02:32:06.146Z,88.20
2018-10-05T02:34:35.028Z,89.10
2018-10-05T02:37:03.625Z,89.20
2018-10-05T02:39:32.182Z,89.20
2018-10-05T02:42:00.770Z,88.90
2018-10-05T02:44:29.263Z,88.80
2018-10-05T02:46:57.814Z,89.20
2018-10-05T02:49:26.295Z,88.70
2018-10-05T02:51:54.948Z,89.40
2018-10-05T02:54:23.791Z,89.60
2018-10-05T02:56:52.309Z,89.80
2018-10-05T02:59:20.838Z,88.00
2018-10-05T03:02:00.800Z,88.00
2018-10-05T03:04:29.290Z,88.80
2018-10-05T03:06:57.822Z,89.30
2018-10-05T03:09:27.030Z,88.40
2018-10-05T03:11:56.083Z,88.70
2018-10-05T03:14:24.826Z,88.90
2018-10-05T03:16:53.762Z,88.80
2018-10-05T03:19:22.299Z,89.20
2018-10-05T03:21:50.842Z,89.50
2018-10-05T03:24:19.374Z,88.30
2018-10-05T03:26:47.944Z,89.00
2018-10-05T03:29:16.551Z,88.90
2018-10-05T03:31:45.119Z,89.40
2018-10-05T03:34:13.825Z,89.30
2018-10-05T03:36:42.351Z,89.30
2018-10-05T03:39:11.616Z,88.70
2018-10-05T03:41:40.638Z,88.40
2018-10-05T03:44:09.234Z,88.70
2018-10-05T03:46:37.787Z,88.90
2018-10-05T03:49:06.766Z,88.60
2018-10-05T03:51:35.298Z,87.30
2018-10-05T03:54:04.205Z,88.30
2018-10-05T03:56:32.752Z,87.90
2018-10-05T03:59:02.035Z,87.90
2018-10-05T04:01:30.876Z,87.60
2018-10-05T04:03:59.419Z,87.30
2018-10-05T04:06:27.963Z,87.20
2018-10-05T04:08:57.006Z,87.20
2018-10-05T04:11:26.224Z,87.20
2018-10-05T04:13:54.992Z,87.10
2018-10-05T04:16:24.502Z,87.10
2018-10-05T04:18:53.319Z,87.10
2018-10-05T04:21:21.838Z,87.10
2018-10-05T04:23:50.379Z,86.60
2018-10-05T04:26:18.868Z,87.00
2018-10-05T04:28:47.414Z,87.10
2018-10-05T04:31:15.947Z,86.60
2018-10-05T04:33:44.786Z,87.00
2018-10-05T04:36:13.295Z,87.00
2018-10-05T04:38:41.820Z,86.60
2018-10-05T04:41:10.401Z,86.40
2018-10-05T04:43:41.266Z,86.20
2018-10-05T04:46:09.743Z,86.10
2018-10-05T04:48:38.271Z,86.90
2018-10-05T04:51:07.000Z,86.80
2018-10-05T04:53:35.819Z,86.30
2018-10-05T04:56:05.159Z,86.10
2018-10-05T04:58:33.706Z,86.40
2018-10-05T05:01:02.870Z,85.20
2018-10-05T05:03:31.486Z,85.60
2018-10-05T05:06:00.002Z,85.70
2018-10-05T05:08:28.607Z,86.70
2018-10-05T05:10:57.127Z,86.40
2018-10-05T05:13:26.438Z,85.20
2018-10-05T05:15:55.282Z,87.50
2018-10-05T05:18:23.881Z,86.60
2018-10-05T05:20:52.443Z,86.80
2018-10-05T05:23:20.990Z,87.30
2018-10-05T05:25:49.510Z,86.40
2018-10-05T05:28:18.328Z,87.00
2018-10-05T05:30:46.856Z,87.50
2018-10-05T05:33:15.384Z,87.50
2018-10-05T05:35:44.835Z,87.40
2018-10-05T05:38:14.078Z,87.50
2018-10-05T05:40:42.764Z,86.70
2018-10-05T05:43:12.026Z,85.90
2018-10-05T05:45:40.563Z,86.70
2018-10-05T05:48:09.351Z,86.20
2018-10-05T05:50:38.738Z,85.70
2018-10-05T05:53:07.336Z,85.70
2018-10-05T05:55:35.887Z,85.30
2018-10-05T05:58:04.478Z,84.80
2018-10-05T06:00:32.972Z,84.60
2018-10-05T06:03:01.795Z,84.30
2018-10-05T06:05:30.329Z,83.90
2018-10-05T06:07:59.464Z,83.70
2018-10-05T06:10:27.982Z,83.50
2018-10-05T06:12:56.998Z,83.00
2018-10-05T06:15:25.653Z,83.00
2018-10-05T06:17:54.182Z,83.10
2018-10-05T06:20:22.726Z,82.30
2018-10-05T06:22:51.278Z,81.90
2018-10-05T06:25:19.832Z,81.40
2018-10-05T06:27:49.744Z,81.10
2018-10-05T06:30:18.794Z,80.20
2018-10-05T06:32:47.975Z,79.70
2018-10-05T06:35:16.741Z,79.20
2018-10-05T06:37:46.229Z,79.20
2018-10-05T06:40:15.268Z,78.50
2018-10-05T06:42:44.522Z,78.10
2018-10-05T06:45:13.754Z,77.60
2018-10-05T06:47:42.329Z,77.30
2018-10-05T06:50:11.311Z,76.40
2018-10-05T06:52:40.579Z,75.80
2018-10-05T06:55:09.143Z,75.20
2018-10-05T06:57:37.710Z,75.30
2018-10-05T07:00:06.693Z,74.60
2018-10-05T07:02:35.291Z,73.90
2018-10-05T07:05:04.760Z,73.60
2018-10-05T07:07:33.347Z,73.30
2018-10-05T07:10:01.944Z,72.40
2018-10-05T07:12:30.490Z,72.20
2018-10-05T07:14:59.144Z,72.00
2018-10-05T07:17:27.717Z,71.40
2018-10-05T07:19:56.278Z,71.20
2018-10-05T07:22:25.570Z,71.30
2018-10-05T07:24:54.186Z,71.40
2018-10-05T07:27:22.706Z,71.20
2018-10-05T07:29:51.273Z,70.40
2018-10-05T07:32:19.816Z,69.90
2018-10-05T07:34:48.379Z,69.50
2018-10-05T07:37:17.679Z,69.10
2018-10-05T07:39:46.202Z,68.50
2018-10-05T07:42:14.746Z,67.80
2018-10-05T07:44:44.127Z,67.30
2018-10-05T07:47:13.708Z,67.40
2018-10-05T07:49:42.277Z,66.70
2018-10-05T07:52:11.551Z,66.10
2018-10-05T07:54:40.795Z,65.50
2018-10-05T07:57:09.360Z,64.60
2018-10-05T07:59:37.965Z,63.50
2018-10-05T08:02:07.416Z,63.30
2018-10-05T08:04:36.201Z,63.40
2018-10-05T08:07:04.841Z,62.20
2018-10-05T08:09:33.434Z,61.70
2018-10-05T08:12:03.044Z,61.20
2018-10-05T08:14:31.930Z,60.90
2018-10-05T08:17:00.438Z,60.30
2018-10-05T08:19:29.047Z,59.90
2018-10-05T08:21:57.663Z,59.10
2018-10-05T08:24:26.920Z,59.10
2018-10-05T08:26:55.461Z,58.50
2018-10-05T08:29:24.073Z,58.30
2018-10-05T08:31:52.606Z,57.20
2018-10-05T08:34:21.495Z,57.10
2018-10-05T08:36:49.943Z,56.30
2018-10-05T08:39:18.801Z,55.30
2018-10-05T08:41:47.929Z,54.90
2018-10-05T08:44:16.492Z,53.90
2018-10-05T08:46:45.302Z,53.40
2018-10-05T08:49:14.267Z,53.50
2018-10-05T08:51:42.873Z,53.20
2018-10-05T08:54:11.474Z,52.50
2018-10-05T08:56:40.356Z,51.50
2018-10-05T08:59:08.961Z,51.10
2018-10-05T09:01:37.498Z,50.60
2018-10-05T09:04:06.057Z,50.00
2018-10-05T09:06:34.560Z,49.80
2018-10-05T09:09:03.203Z,48.80
2018-10-05T09:11:32.555Z,48.70
2018-10-05T09:14:01.392Z,47.70
2018-10-05T09:16:30.130Z,47.70
2018-10-05T09:18:58.694Z,47.90
2018-10-05T09:21:27.322Z,46.90
2018-10-05T09:23:55.891Z,46.60
2018-10-05T09:26:24.703Z,45.40
2018-10-05T09:28:53.218Z,45.40
2018-10-05T09:31:21.769Z,45.40
2018-10-05T09:33:50.296Z,45.30
2018-10-05T09:36:18.859Z,44.90
2018-10-05T09:38:47.391Z,44.80
2018-10-05T09:41:15.945Z,43.80
2018-10-05T09:43:44.572Z,43.50
2018-10-05T09:46:13.102Z,43.30
2018-10-05T09:48:41.629Z,43.40
2018-10-05T09:51:10.283Z,42.60
2018-10-05T09:53:39.160Z,42.00
2018-10-05T09:56:08.182Z,42.10
2018-10-05T09:58:36.963Z,42.20
2018-10-05T10:01:10.642Z,42.20
2018-10-05T10:03:39.916Z,42.20
2018-10-05T10:06:08.592Z,42.30
2018-10-05T10:08:37.182Z,42.30
2018-10-05T10:11:06.104Z,41.90
2018-10-05T10:13:34.934Z,41.60
2018-10-05T10:16:03.540Z,40.60
2018-10-05T10:18:32.074Z,40.30
2018-10-05T10:21:00.696Z,40.70
2018-10-05T10:23:29.240Z,40.50
2018-10-05T10:25:57.786Z,40.20
2018-10-05T10:28:26.509Z,40.10
2018-10-05T10:30:55.039Z,39.60
2018-10-05T10:33:23.589Z,39.30
2018-10-05T10:35:52.172Z,39.10
2018-10-05T10:38:20.778Z,39.30
2018-10-05T10:40:49.358Z,39.20
2018-10-05T10:43:17.887Z,39.20
2018-10-05T10:45:46.540Z,39.50
2018-10-05T10:48:15.157Z,39.30
2018-10-05T10:50:43.705Z,39.50
2018-10-05T10:53:12.354Z,39.20
2018-10-05T10:55:40.848Z,39.30
2018-10-05T10:58:09.400Z,39.50
2018-10-05T11:00:38.053Z,39.80
2018-10-05T11:03:06.802Z,39.60
2018-10-05T11:05:35.521Z,39.80
2018-10-05T11:08:04.067Z,39.50
2018-10-05T11:10:32.648Z,39.40
2018-10-05T11:13:01.378Z,40.10
2018-10-05T11:15:31.165Z,40.10
2018-10-05T11:17:59.791Z,39.70
2018-10-05T11:20:28.460Z,39.30
2018-10-05T11:22:57.078Z,39.90
2018-10-05T11:25:25.727Z,39.80
2018-10-05T11:27:54.275Z,40.10
2018-10-05T11:30:23.171Z,40.30
2018-10-05T11:32:52.172Z,41.40
2018-10-05T11:35:20.965Z,41.60
2018-10-05T11:37:49.604Z,41.60
2018-10-05T11:40:18.436Z,41.60
2018-10-05T11:42:47.371Z,41.50
2018-10-05T11:45:15.985Z,41.50
2018-10-05T11:47:44.563Z,41.50
2018-10-05T11:50:13.176Z,41.50
2018-10-05T11:52:41.747Z,41.50
2018-10-05T11:55:10.339Z,41.40
2018-10-05T11:57:38.924Z,41.40
2018-10-05T12:00:08.057Z,41.30
2018-10-05T12:02:37.248Z,41.40
2018-10-05T12:05:05.925Z,42.60
2018-10-05T12:07:34.451Z,43.30
2018-10-05T12:10:03.073Z,43.20
2018-10-05T12:12:31.595Z,44.10
2018-10-05T12:15:00.331Z,44.10
2018-10-05T12:17:28.962Z,43.80
2018-10-05T12:19:57.664Z,43.80
2018-10-05T12:22:26.154Z,43.60
2018-10-05T12:24:54.828Z,44.10
2018-10-05T12:27:23.384Z,44.40
2018-10-05T12:29:52.052Z,44.60
2018-10-05T12:32:20.728Z,44.20
2018-10-05T12:34:49.476Z,44.30
2018-10-05T12:37:18.097Z,44.20
2018-10-05T12:39:46.651Z,44.40
2018-10-05T12:42:15.411Z,43.60
2018-10-05T12:44:44.119Z,44.10
2018-10-05T12:47:13.765Z,43.40
2018-10-05T12:49:42.343Z,44.60
2018-10-05T12:52:10.883Z,43.20
2018-10-05T12:54:39.674Z,43.20
2018-10-05T12:57:08.266Z,41.20
2018-10-05T12:59:36.930Z,41.30
2018-10-05T13:02:05.545Z,41.30
2018-10-05T13:04:34.635Z,41.30
2018-10-05T13:07:04.357Z,41.40
2018-10-05T13:09:32.911Z,41.40
2018-10-05T13:12:01.404Z,41.40
2018-10-05T13:14:30.019Z,41.40
2018-10-05T13:16:58.640Z,41.40
2018-10-05T13:19:27.366Z,41.40
2018-10-05T13:21:56.085Z,41.40
2018-10-05T13:24:24.597Z,41.40
2018-10-05T13:26:53.216Z,41.50
2018-10-05T13:29:21.905Z,41.50
2018-10-05T13:31:50.474Z,40.50
2018-10-05T13:34:18.982Z,40.40
2018-10-05T13:36:47.690Z,40.80
2018-10-05T13:39:16.258Z,40.50
2018-10-05T13:41:44.905Z,40.00
2018-10-05T13:44:13.786Z,40.10
2018-10-05T13:46:42.439Z,39.20
2018-10-05T13:49:11.011Z,39.70
2018-10-05T13:51:39.594Z,38.30
2018-10-05T13:54:08.936Z,38.80
2018-10-05T13:56:38.200Z,39.20
2018-10-05T13:59:07.451Z,39.10
2018-10-05T14:01:36.483Z,38.90
2018-10-05T14:04:05.547Z,38.40
2018-10-05T14:06:35.101Z,38.60
2018-10-05T14:09:05.324Z,38.30
2018-10-05T14:11:34.894Z,37.80
2018-10-05T14:14:03.971Z,38.70
2018-10-05T14:16:32.552Z,38.70
2018-10-05T14:19:01.153Z,38.40
2018-10-05T14:21:29.751Z,38.70
2018-10-05T14:23:58.431Z,38.80
2018-10-05T14:26:27.007Z,38.30
2018-10-05T14:28:55.827Z,38.00
2018-10-05T14:31:25.093Z,38.60
2018-10-05T14:33:53.974Z,38.60
2018-10-05T14:36:22.509Z,38.00
2018-10-05T14:38:51.874Z,37.00
2018-10-05T14:41:20.448Z,37.60
2018-10-05T14:43:49.037Z,37.70
2018-10-05T14:46:17.826Z,37.50
2018-10-05T14:48:48.097Z,37.60
2018-10-05T14:51:17.193Z,37.40
2018-10-05T14:53:45.865Z,37.20
2018-10-05T14:56:14.439Z,37.80
2018-10-05T14:58:43.106Z,37.20
2018-10-05T15:01:11.871Z,37.40
2018-10-05T15:03:41.075Z,37.40
2018-10-05T15:06:10.028Z,37.20
2018-10-05T15:08:38.612Z,37.30
2018-10-05T15:11:07.439Z,37.50
2018-10-05T15:13:36.193Z,36.80
2018-10-05T15:16:04.784Z,37.20
2018-10-05T15:18:33.303Z,37.50
2018-10-05T15:21:01.887Z,37.40
2018-10-05T15:23:31.134Z,37.60
2018-10-05T15:25:59.787Z,37.60
2018-10-05T15:28:28.318Z,37.60
2018-10-05T15:30:56.897Z,38.70
2018-10-05T15:33:25.670Z,38.20
2018-10-05T15:35:54.288Z,38.40
2018-10-05T15:38:22.891Z,39.60
2018-10-05T15:40:51.462Z,39.30
2018-10-05T15:43:20.077Z,39.60
2018-10-05T15:45:48.662Z,39.20
2018-10-05T15:48:17.462Z,39.60
2018-10-05T15:50:46.274Z,40.10
2018-10-05T15:53:14.950Z,40.70
2018-10-05T15:55:43.506Z,41.40
2018-10-05T15:58:12.106Z,41.40
2018-10-05T16:00:40.831Z,41.30
2018-10-05T16:03:09.472Z,41.30
2018-10-05T16:05:38.188Z,41.20
2018-10-05T16:08:06.692Z,41.20
2018-10-05T16:10:35.284Z,41.20
2018-10-05T16:13:04.019Z,41.10
2018-10-05T16:15:32.595Z,41.10
2018-10-05T16:18:01.792Z,41.20
2018-10-05T16:20:30.342Z,41.50
2018-10-05T16:22:58.876Z,42.30
2018-10-05T16:25:27.475Z,43.00
2018-10-05T16:27:55.982Z,43.00
2018-10-05T16:30:24.519Z,43.50
2018-10-05T16:32:53.063Z,43.60
2018-10-05T16:35:21.625Z,43.90
2018-10-05T16:37:50.491Z,44.20
2018-10-05T16:40:21.009Z,44.40
2018-10-05T16:42:49.502Z,44.50
2018-10-05T16:45:18.052Z,44.60
2018-10-05T16:47:46.684Z,44.60
2018-10-05T16:50:15.233Z,45.10
2018-10-05T16:52:43.918Z,45.30
2018-10-05T16:55:12.461Z,45.90
2018-10-05T16:57:40.978Z,45.90
2018-10-05T17:00:09.522Z,46.80
2018-10-05T17:02:38.154Z,46.80
2018-10-05T17:05:06.780Z,47.00
2018-10-05T17:07:35.381Z,47.00
2018-10-05T17:10:03.967Z,47.00
2018-10-05T17:12:32.558Z,47.50
2018-10-05T17:15:01.137Z,48.00
2018-10-05T17:17:29.670Z,48.50
2018-10-05T17:19:58.254Z,48.50
2018-10-05T17:22:26.812Z,48.50
2018-10-05T17:24:55.431Z,48.70
2018-10-05T17:27:23.999Z,48.70
2018-10-05T17:29:52.561Z,48.70
2018-10-05T17:32:21.110Z,48.80
2018-10-05T17:34:49.678Z,48.70
2018-10-05T17:37:18.190Z,48.70
2018-10-05T17:39:46.842Z,49.00
2018-10-05T17:42:15.478Z,49.00
2018-10-05T17:44:44.125Z,49.20
2018-10-05T17:47:12.723Z,49.40
2018-10-05T17:49:41.265Z,49.70
2018-10-05T17:52:09.980Z,49.80
2018-10-05T17:54:38.723Z,50.10
2018-10-05T17:57:07.230Z,50.20
2018-10-05T17:59:35.838Z,50.40
2018-10-05T18:02:04.384Z,50.40
2018-10-05T18:04:33.093Z,51.70
2018-10-05T18:07:01.636Z,50.80
2018-10-05T18:09:30.200Z,50.80
2018-10-05T18:11:59.677Z,51.10
2018-10-05T18:14:28.412Z,51.60
2018-10-05T18:16:56.944Z,51.70
2018-10-05T18:19:25.519Z,52.10
2018-10-05T18:21:54.114Z,52.60
2018-10-05T18:24:22.684Z,52.80
2018-10-05T18:26:51.373Z,52.80
2018-10-05T18:29:20.070Z,52.80
2018-10-05T18:31:48.804Z,52.80
2018-10-05T18:34:17.422Z,53.50
2018-10-05T18:36:46.053Z,52.60
2018-10-05T18:39:14.632Z,52.60
2018-10-05T18:41:43.541Z,52.60
2018-10-05T18:44:12.171Z,52.50
2018-10-05T18:46:40.809Z,52.50
2018-10-05T18:49:10.016Z,52.50
2018-10-05T18:51:39.011Z,52.50
2018-10-05T18:54:07.746Z,52.60
2018-10-05T18:56:47.728Z,53.00
2018-10-05T18:59:19.610Z,53.80
2018-10-05T19:01:50.367Z,54.60
2018-10-05T19:04:18.961Z,54.90
2018-10-05T19:06:47.613Z,54.50
2018-10-05T19:09:16.143Z,55.00
2018-10-05T19:11:44.831Z,55.20
2018-10-05T19:14:13.931Z,55.60
2018-10-05T19:16:42.548Z,56.10
2018-10-05T19:19:11.322Z,56.10
2018-10-05T19:21:40.287Z,56.80
2018-10-05T19:24:09.484Z,57.10
2018-10-05T19:26:38.315Z,57.40
2018-10-05T19:29:06.756Z,59.20
2018-10-05T19:31:35.333Z,58.40
2018-10-05T19:34:04.125Z,58.00
2018-10-05T19:36:33.029Z,57.60
2018-10-05T19:39:02.130Z,57.80
2018-10-05T19:41:30.659Z,58.20
2018-10-05T19:43:59.262Z,58.40
2018-10-05T19:46:28.016Z,58.50
2018-10-05T19:48:56.663Z,58.40
2018-10-05T19:51:25.291Z,58.30
2018-10-05T19:53:54.543Z,58.30
2018-10-05T19:56:23.225Z,58.30
2018-10-05T19:58:52.003Z,58.20
2018-10-05T20:01:20.693Z,58.10
2018-10-05T20:03:49.455Z,58.20
2018-10-05T20:06:18.233Z,58.00
2018-10-05T20:08:46.922Z,59.00
2018-10-05T20:11:15.570Z,59.30
2018-10-05T20:13:44.224Z,59.20
2018-10-05T20:16:12.863Z,58.90
2018-10-05T20:18:41.644Z,59.30
2018-10-05T20:21:10.724Z,59.30
2018-10-05T20:23:39.817Z,59.70
2018-10-05T20:26:08.541Z,60.10
2018-10-05T20:28:37.473Z,59.80
2018-10-05T20:31:06.301Z,59.90
2018-10-05T20:33:34.987Z,60.30
2018-10-05T20:36:03.730Z,60.30
2018-10-05T20:38:32.700Z,60.40
2018-10-05T20:41:01.299Z,60.50
2018-10-05T20:43:30.031Z,60.40
2018-10-05T20:45:58.682Z,60.70
2018-10-05T20:48:27.982Z,60.80
2018-10-05T20:50:57.585Z,61.10
2018-10-05T20:53:26.244Z,60.40
2018-10-05T20:55:54.783Z,60.70
2018-10-05T20:58:23.372Z,61.00
2018-10-05T21:00:51.939Z,61.00
2018-10-05T21:03:20.673Z,61.20
2018-10-05T21:05:49.690Z,61.20
2018-10-05T21:08:18.349Z,61.50
2018-10-05T21:10:46.904Z,61.60
2018-10-05T21:13:15.860Z,62.00
2018-10-05T21:15:44.441Z,62.00
2018-10-05T21:18:13.027Z,62.20
2018-10-05T21:20:41.602Z,62.30
2018-10-05T21:23:10.351Z,62.60
2018-10-05T21:25:39.245Z,62.60
2018-10-05T21:28:08.135Z,62.60
2018-10-05T21:30:36.678Z,62.60
2018-10-05T21:33:05.483Z,62.60
2018-10-05T21:35:34.009Z,62.60
2018-10-05T21:38:02.635Z,62.60
2018-10-05T21:40:31.351Z,62.60
2018-10-05T21:42:59.961Z,62.60
2018-10-05T21:45:29.141Z,62.60
2018-10-05T21:47:57.830Z,62.60
2018-10-05T21:50:27.905Z,62.50
2018-10-05T21:52:57.202Z,62.50
2018-10-05T21:55:25.863Z,63.10
2018-10-05T21:57:54.419Z,62.90
2018-10-05T22:00:24.157Z,63.40
2018-10-05T22:02:52.689Z,63.90
2018-10-05T22:05:21.507Z,64.30
2018-10-05T22:07:50.649Z,64.20
2018-10-05T22:10:19.302Z,64.60
2018-10-05T22:12:48.021Z,64.80
2018-10-05T22:15:17.366Z,64.70
2018-10-05T22:17:46.362Z,65.00
2018-10-05T22:20:14.994Z,65.40
2018-10-05T22:22:43.639Z,65.20
2018-10-05T22:25:12.199Z,65.10
2018-10-05T22:27:40.889Z,65.20
2018-10-05T22:30:09.813Z,65.00
2018-10-05T22:32:38.514Z,65.10
2018-10-05T22:35:07.087Z,65.30
2018-10-05T22:37:35.742Z,65.50
2018-10-05T22:40:04.300Z,65.50
2018-10-05T22:42:33.390Z,65.50
2018-10-05T22:45:02.043Z,65.50
2018-10-05T22:47:31.058Z,65.30
2018-10-05T22:49:59.695Z,65.40
2018-10-05T22:52:28.756Z,65.40
2018-10-05T22:54:57.330Z,65.70
2018-10-05T22:57:25.862Z,66.00
2018-10-05T22:59:54.442Z,66.10
2018-10-05T23:02:23.110Z,66.40
2018-10-05T23:04:52.054Z,66.90
2018-10-05T23:07:20.725Z,66.90
2018-10-05T23:09:49.321Z,66.90
2018-10-05T23:12:18.550Z,66.90
2018-10-05T23:14:47.086Z,67.10
2018-10-05T23:17:15.839Z,67.30
2018-10-05T23:19:45.085Z,67.30
2018-10-05T23:22:13.728Z,66.90
2018-10-05T23:24:42.375Z,66.90
2018-10-05T23:27:11.267Z,66.90
2018-10-05T23:29:39.898Z,67.10
2018-10-05T23:32:08.535Z,67.00
2018-10-05T23:34:37.066Z,67.00
2018-10-05T23:37:05.659Z,67.00
2018-10-05T23:39:34.236Z,67.00
2018-10-05T23:42:02.811Z,67.00
2018-10-05T23:44:31.743Z,67.00
2018-10-05T23:47:00.658Z,67.00
2018-10-05T23:49:30.982Z,67.00
2018-10-05T23:52:08.719Z,67.00
2018-10-05T23:54:37.262Z,67.00
2018-10-05T23:57:05.962Z,67.00
2018-10-05T23:59:34.518Z,67.00
